createdAt,value
2018-10-04T00:01:21.682Z,2.30
2018-10-04T00:03:53.929Z,2.50
2018-10-04T00:06:26.451Z,2.30
2018-10-04T00:08:58.799Z,2.23
2018-10-04T00:11:30.799Z,2.50
2018-10-04T00:14:03.340Z,2.43
2018-10-04T00:16:35.694Z,2.37
2018-10-04T00:19:08.096Z,2.37
2018-10-04T00:21:40.658Z,2.47
2018-10-04T00:24:13.050Z,2.37
2018-10-04T00:26:45.221Z,2.27
2018-10-04T00:29:17.590Z,2.27
2018-10-04T00:31:50.159Z,2.20
2018-10-04T00:34:22.771Z,2.37
2018-10-04T00:36:55.095Z,2.73
2018-10-04T00:39:27.306Z,2.23
2018-10-04T00:41:59.534Z,2.80
2018-10-04T00:44:31.942Z,2.47
2018-10-04T00:47:04.385Z,2.00
2018-10-04T00:49:36.669Z,2.00
2018-10-04T00:52:09.214Z,2.30
2018-10-04T00:54:41.250Z,2.40
2018-10-04T00:57:13.807Z,2.20
2018-10-04T00:59:46.361Z,2.03
2018-10-04T01:02:19.401Z,2.10
2018-10-04T01:04:52.033Z,2.40
2018-10-04T01:07:24.083Z,2.20
2018-10-04T01:09:56.524Z,2.10
2018-10-04T01:12:28.652Z,2.30
2018-10-04T01:15:01.013Z,1.70
2018-10-04T01:17:33.275Z,2.30
2018-10-04T01:20:06.580Z,2.17
2018-10-04T01:22:39.016Z,2.30
2018-10-04T01:25:11.439Z,2.20
2018-10-04T01:27:43.945Z,2.70
2018-10-04T01:30:16.121Z,2.00
2018-10-04T01:32:48.389Z,1.90
2018-10-04T01:35:20.819Z,2.47
2018-10-04T01:37:53.219Z,3.27
2018-10-04T01:40:25.796Z,2.90
2018-10-04T01:42:57.806Z,2.27
2018-10-04T01:45:29.967Z,1.93
2018-10-04T01:48:02.307Z,2.27
2018-10-04T01:50:34.524Z,2.70
2018-10-04T01:53:06.785Z,2.10
2018-10-04T01:55:39.090Z,2.67
2018-10-04T01:58:11.347Z,3.00
2018-10-04T02:00:44.140Z,2.40
2018-10-04T02:03:16.724Z,2.37
2018-10-04T02:05:49.634Z,2.10
2018-10-04T02:08:22.231Z,2.97
2018-10-04T02:10:54.396Z,2.77
2018-10-04T02:13:26.739Z,2.90
2018-10-04T02:15:59.032Z,3.07
2018-10-04T02:18:31.609Z,3.00
2018-10-04T02:21:04.214Z,3.03
2018-10-04T02:23:36.589Z,2.90
2018-10-04T02:26:08.639Z,3.73
2018-10-04T02:28:41.162Z,3.67
2018-10-04T02:31:13.607Z,3.00
2018-10-04T02:33:45.751Z,3.50
2018-10-04T02:36:18.149Z,3.17
2018-10-04T02:38:50.270Z,3.30
2018-10-04T02:41:22.470Z,2.70
2018-10-04T02:43:55.067Z,3.60
2018-10-04T02:46:27.419Z,3.17
2018-10-04T02:48:59.600Z,3.10
2018-10-04T02:51:31.951Z,3.77
2018-10-04T02:54:03.715Z,2.60
2018-10-04T02:56:40.159Z,3.10
2018-10-04T02:59:12.328Z,4.27
2018-10-04T03:01:44.086Z,3.10
2018-10-04T03:04:16.390Z,2.70
2018-10-04T03:06:48.963Z,3.20
2018-10-04T03:09:21.735Z,3.30
2018-10-04T03:11:53.979Z,3.20
2018-10-04T03:14:25.741Z,2.77
2018-10-04T03:16:57.510Z,2.73
2018-10-04T03:19:30.147Z,3.00
2018-10-04T03:22:02.568Z,3.07
2018-10-04T03:24:34.607Z,2.90
2018-10-04T03:27:07.005Z,2.80
2018-10-04T03:29:39.127Z,3.00
2018-10-04T03:32:11.301Z,2.90
2018-10-04T03:34:43.699Z,3.10
2018-10-04T03:37:15.517Z,3.10
2018-10-04T03:39:47.290Z,3.27
2018-10-04T03:42:19.716Z,3.23
2018-10-04T03:44:52.202Z,3.23
2018-10-04T03:47:24.585Z,3.77
2018-10-04T03:49:56.626Z,3.43
2018-10-04T03:52:29.022Z,2.80
2018-10-04T03:55:01.327Z,3.33
2018-10-04T03:57:33.071Z,3.50
2018-10-04T04:00:04.959Z,3.60
2018-10-04T04:02:36.848Z,3.60
2018-10-04T04:05:09.042Z,4.13
2018-10-04T04:07:41.490Z,4.17
2018-10-04T04:10:13.622Z,4.03
2018-10-04T04:12:45.976Z,3.80
2018-10-04T04:15:18.441Z,4.00
2018-10-04T04:17:51.293Z,3.70
2018-10-04T04:20:23.403Z,4.73
2018-10-04T04:22:55.125Z,4.30
2018-10-04T04:25:26.822Z,5.27
2018-10-04T04:27:58.920Z,4.70
2018-10-04T04:30:32.052Z,4.60
2018-10-04T04:33:04.634Z,4.20
2018-10-04T04:35:36.855Z,4.27
2018-10-04T04:38:09.205Z,4.50
2018-10-04T04:40:41.712Z,4.70
2018-10-04T04:43:13.633Z,4.33
2018-10-04T04:45:45.695Z,3.90
2018-10-04T04:48:18.777Z,4.70
2018-10-04T04:50:50.911Z,4.80
2018-10-04T04:53:37.938Z,4.87
2018-10-04T04:56:10.440Z,4.80
2018-10-04T04:58:42.509Z,4.60
2018-10-04T05:01:14.287Z,4.73
2018-10-04T05:03:46.511Z,4.60
2018-10-04T05:06:18.456Z,4.87
2018-10-04T05:08:50.332Z,4.97
2018-10-04T05:11:22.483Z,5.43
2018-10-04T05:13:55.078Z,4.73
2018-10-04T05:16:27.546Z,5.50
2018-10-04T05:18:59.814Z,5.00
2018-10-04T05:21:32.304Z,5.70
2018-10-04T05:24:04.777Z,5.60
2018-10-04T05:26:36.818Z,6.10
2018-10-04T05:29:10.027Z,5.37
2018-10-04T05:31:42.468Z,5.27
2018-10-04T05:34:14.750Z,5.67
2018-10-04T05:36:47.144Z,5.80
2018-10-04T05:39:19.789Z,5.53
2018-10-04T05:41:52.626Z,6.03
2018-10-04T05:44:24.954Z,5.70
2018-10-04T05:46:57.502Z,5.43
2018-10-04T05:49:30.162Z,5.70
2018-10-04T05:52:02.330Z,4.97
2018-10-04T05:54:34.499Z,5.90
2018-10-04T05:57:06.604Z,5.20
2018-10-04T05:59:39.310Z,5.30
2018-10-04T06:02:11.756Z,4.90
2018-10-04T06:04:44.571Z,4.40
2018-10-04T06:07:16.778Z,5.03
2018-10-04T06:09:49.378Z,4.50
2018-10-04T06:12:21.948Z,5.90
2018-10-04T06:14:54.358Z,4.67
2018-10-04T06:17:26.689Z,5.03
2018-10-04T06:19:59.072Z,5.30
2018-10-04T06:22:31.324Z,5.07
2018-10-04T06:25:04.716Z,5.33
2018-10-04T06:27:37.068Z,5.40
2018-10-04T06:30:09.666Z,5.33
2018-10-04T06:32:42.138Z,6.50
2018-10-04T06:35:14.592Z,5.40
2018-10-04T06:37:46.699Z,5.60
2018-10-04T06:40:19.542Z,4.57
2018-10-04T06:42:52.510Z,5.00
2018-10-04T06:45:24.947Z,5.63
2018-10-04T06:47:57.239Z,5.43
2018-10-04T06:50:29.614Z,5.50
2018-10-04T06:53:02.140Z,4.87
2018-10-04T06:55:34.559Z,4.90
2018-10-04T06:58:06.708Z,6.00
2018-10-04T07:00:39.319Z,5.57
2018-10-04T07:03:11.609Z,5.33
2018-10-04T07:05:44.446Z,6.00
2018-10-04T07:08:16.625Z,5.63
2018-10-04T07:10:48.860Z,5.33
2018-10-04T07:13:21.341Z,5.67
2018-10-04T07:15:53.827Z,5.30
2018-10-04T07:18:25.913Z,5.20
2018-10-04T07:20:58.500Z,4.90
2018-10-04T07:23:30.793Z,6.70
2018-10-04T07:26:03.443Z,4.83
2018-10-04T07:28:35.879Z,5.73
2018-10-04T07:31:08.046Z,4.60
2018-10-04T07:33:40.346Z,6.13
2018-10-04T07:36:12.747Z,5.87
2018-10-04T07:38:45.215Z,5.73
2018-10-04T07:41:17.290Z,5.07
2018-10-04T07:43:49.663Z,5.57
2018-10-04T07:46:22.077Z,5.67
2018-10-04T07:48:54.455Z,5.30
2018-10-04T07:51:26.794Z,5.87
2018-10-04T07:53:59.319Z,5.53
2018-10-04T07:56:31.431Z,5.80
2018-10-04T07:59:03.769Z,5.67
2018-10-04T08:01:36.273Z,6.33
2018-10-04T08:04:08.728Z,5.60
2018-10-04T08:06:41.970Z,6.23
2018-10-04T08:09:14.103Z,6.53
2018-10-04T08:11:46.455Z,7.50
2018-10-04T08:14:18.648Z,6.63
2018-10-04T08:16:50.967Z,6.40
2018-10-04T08:19:23.194Z,6.80
2018-10-04T08:21:55.546Z,6.40
2018-10-04T08:24:28.142Z,6.00
2018-10-04T08:27:00.211Z,6.33
2018-10-04T08:29:32.639Z,6.30
2018-10-04T08:32:04.978Z,7.07
2018-10-04T08:34:37.405Z,6.80
2018-10-04T08:37:09.906Z,6.53
2018-10-04T08:39:42.338Z,6.20
2018-10-04T08:42:14.860Z,5.90
2018-10-04T08:44:47.420Z,6.60
2018-10-04T08:47:20.049Z,6.10
2018-10-04T08:49:52.158Z,6.60
2018-10-04T08:52:29.459Z,6.37
2018-10-04T08:55:06.451Z,6.13
2018-10-04T08:57:38.795Z,6.00
2018-10-04T09:00:11.235Z,6.50
2018-10-04T09:02:43.567Z,6.07
2018-10-04T09:05:16.114Z,6.30
2018-10-04T09:07:48.742Z,6.47
2018-10-04T09:10:21.065Z,5.50
2018-10-04T09:12:53.242Z,6.67
2018-10-04T09:15:25.631Z,7.30
2018-10-04T09:17:57.679Z,6.90
2018-10-04T09:20:30.070Z,6.30
2018-10-04T09:23:02.489Z,5.50
2018-10-04T09:25:34.811Z,6.33
2018-10-04T09:28:11.694Z,6.53
2018-10-04T09:30:48.425Z,6.00
2018-10-04T09:33:21.518Z,6.40
2018-10-04T09:35:53.664Z,6.57
2018-10-04T09:38:26.194Z,6.33
2018-10-04T09:40:59.183Z,5.83
2018-10-04T09:43:32.063Z,5.13
2018-10-04T09:46:06.492Z,6.10
2018-10-04T09:48:38.948Z,6.50
2018-10-04T09:51:15.757Z,6.43
2018-10-04T09:53:56.271Z,5.60
2018-10-04T09:56:33.230Z,5.90
2018-10-04T09:59:07.020Z,6.53
2018-10-04T10:01:44.014Z,5.47
2018-10-04T10:04:16.389Z,6.03
2018-10-04T10:06:48.453Z,6.10
2018-10-04T10:09:20.724Z,6.13
2018-10-04T10:11:53.058Z,5.90
2018-10-04T10:14:25.587Z,6.83
2018-10-04T10:16:57.766Z,6.07
2018-10-04T10:19:30.166Z,6.20
2018-10-04T10:22:02.335Z,7.13
2018-10-04T10:24:34.761Z,6.00
2018-10-04T10:27:06.874Z,6.60
2018-10-04T10:29:39.169Z,6.43
2018-10-04T10:32:11.516Z,5.87
2018-10-04T10:34:43.812Z,6.30
2018-10-04T10:37:16.001Z,6.10
2018-10-04T10:39:48.445Z,6.40
2018-10-04T10:42:21.427Z,6.57
2018-10-04T10:44:53.491Z,6.20
2018-10-04T10:47:25.949Z,5.67
2018-10-04T10:49:58.526Z,6.30
2018-10-04T10:52:30.609Z,6.80
2018-10-04T10:55:02.998Z,6.20
2018-10-04T10:57:35.422Z,5.90
2018-10-04T11:00:07.886Z,5.93
2018-10-04T11:02:40.405Z,5.40
2018-10-04T11:05:13.659Z,6.50
2018-10-04T11:07:46.483Z,6.07
2018-10-04T11:10:19.018Z,5.97
2018-10-04T11:12:51.296Z,6.47
2018-10-04T11:15:23.304Z,5.20
2018-10-04T11:17:55.978Z,5.80
2018-10-04T11:20:28.510Z,5.43
2018-10-04T11:23:01.029Z,5.87
2018-10-04T11:25:33.841Z,5.13
2018-10-04T11:28:05.895Z,5.37
2018-10-04T11:30:38.235Z,5.93
2018-10-04T11:33:10.880Z,6.20
2018-10-04T11:35:43.230Z,5.17
2018-10-04T11:38:15.618Z,5.50
2018-10-04T11:40:47.911Z,6.73
2018-10-04T11:43:22.834Z,5.67
2018-10-04T11:45:55.249Z,6.53
2018-10-04T11:48:30.334Z,6.83
2018-10-04T11:51:03.763Z,8.80
2018-10-04T11:53:36.051Z,7.10
2018-10-04T11:56:08.419Z,7.17
2018-10-04T11:58:40.773Z,7.83
2018-10-04T12:01:13.621Z,7.53
2018-10-04T12:03:45.770Z,8.30
2018-10-04T12:06:18.126Z,8.90
2018-10-04T12:08:50.655Z,8.20
2018-10-04T12:11:22.884Z,7.93
2018-10-04T12:13:55.173Z,7.60
2018-10-04T12:16:27.577Z,7.80
2018-10-04T12:18:59.937Z,7.20
2018-10-04T12:21:32.323Z,7.57
2018-10-04T12:24:04.443Z,8.13
2018-10-04T12:26:36.254Z,7.60
2018-10-04T12:29:08.570Z,7.37
2018-10-04T12:31:41.094Z,7.47
2018-10-04T12:34:13.433Z,7.07
2018-10-04T12:36:45.642Z,8.00
2018-10-04T12:39:18.169Z,7.30
2018-10-04T12:41:50.572Z,7.97
2018-10-04T12:44:22.753Z,7.30
2018-10-04T12:46:54.834Z,7.83
2018-10-04T12:49:27.183Z,7.60
2018-10-04T12:51:59.695Z,8.20
2018-10-04T12:54:31.935Z,7.20
2018-10-04T12:57:04.757Z,7.77
2018-10-04T12:59:37.100Z,7.97
2018-10-04T13:02:09.739Z,8.40
2018-10-04T13:04:42.191Z,6.97
2018-10-04T13:07:14.570Z,8.80
2018-10-04T13:09:46.791Z,7.67
2018-10-04T13:12:19.192Z,7.30
2018-10-04T13:14:51.342Z,7.13
2018-10-04T13:17:24.168Z,7.60
2018-10-04T13:19:56.456Z,7.07
2018-10-04T13:22:28.754Z,8.00
2018-10-04T13:25:01.152Z,7.27
2018-10-04T13:27:34.323Z,7.77
2018-10-04T13:30:07.149Z,7.58
2018-10-04T13:32:39.143Z,7.03
2018-10-04T13:35:11.543Z,6.50
2018-10-04T13:37:43.784Z,6.27
2018-10-04T13:40:16.242Z,8.10
2018-10-04T13:42:48.754Z,6.67
2018-10-04T13:45:21.112Z,8.17
2018-10-04T13:47:53.494Z,7.00
2018-10-04T13:50:25.453Z,7.45
2018-10-04T13:52:57.817Z,8.03
2018-10-04T13:55:29.947Z,8.03
2018-10-04T13:58:02.445Z,9.45
2018-10-04T14:00:34.807Z,9.75
2018-10-04T14:03:07.171Z,10.28
2018-10-04T14:05:39.699Z,10.28
2018-10-04T14:08:12.342Z,8.98
2018-10-04T14:10:44.574Z,9.10
2018-10-04T14:13:17.264Z,9.20
2018-10-04T14:15:49.670Z,9.08
2018-10-04T14:18:21.869Z,8.85
2018-10-04T14:20:54.169Z,8.93
2018-10-04T14:23:26.869Z,7.90
2018-10-04T14:25:59.153Z,8.75
2018-10-04T14:28:31.597Z,8.65
2018-10-04T14:31:03.974Z,8.15
2018-10-04T14:33:36.203Z,9.03
2018-10-04T14:36:08.608Z,8.85
2018-10-04T14:38:40.926Z,9.30
2018-10-04T14:41:13.359Z,9.65
2018-10-04T14:43:45.727Z,8.88
2018-10-04T14:46:18.505Z,8.65
2018-10-04T14:48:50.935Z,9.20
2018-10-04T14:51:23.147Z,7.70
2018-10-04T14:53:55.667Z,8.30
2018-10-04T14:56:28.062Z,9.05
2018-10-04T14:59:00.389Z,8.90
2018-10-04T15:01:33.050Z,8.08
2018-10-04T15:04:05.212Z,8.05
2018-10-04T15:06:38.095Z,9.00
2018-10-04T15:09:12.644Z,8.10
2018-10-04T15:11:45.226Z,8.95
2018-10-04T15:14:17.291Z,10.03
2018-10-04T15:16:50.123Z,9.70
2018-10-04T15:19:22.212Z,11.90
2018-10-04T15:21:54.770Z,11.97
2018-10-04T15:24:26.984Z,12.30
2018-10-04T15:26:59.658Z,12.07
2018-10-04T15:29:32.223Z,11.30
2018-10-04T15:32:04.627Z,11.27
2018-10-04T15:34:36.873Z,10.17
2018-10-04T15:37:09.374Z,9.70
2018-10-04T15:39:41.392Z,9.60
2018-10-04T15:42:13.568Z,9.20
2018-10-04T15:44:46.338Z,8.63
2018-10-04T15:47:18.786Z,9.27
2018-10-04T15:49:51.152Z,9.37
2018-10-04T15:52:23.137Z,9.30
2018-10-04T15:54:55.741Z,9.70
2018-10-04T15:57:28.071Z,7.53
2018-10-04T16:00:00.409Z,7.27
2018-10-04T16:02:32.400Z,6.37
2018-10-04T16:05:04.969Z,5.50
2018-10-04T16:07:37.008Z,6.70
2018-10-04T16:10:09.394Z,6.00
2018-10-04T16:12:42.060Z,7.10
2018-10-04T16:15:18.400Z,7.67
2018-10-04T16:17:50.879Z,7.00
2018-10-04T16:20:23.307Z,6.40
2018-10-04T16:22:55.737Z,6.67
2018-10-04T16:25:28.217Z,7.97
2018-10-04T16:28:00.497Z,7.13
2018-10-04T16:30:32.705Z,7.60
2018-10-04T16:33:04.928Z,7.63
2018-10-04T16:35:37.112Z,7.13
2018-10-04T16:38:09.099Z,7.10
2018-10-04T16:40:41.499Z,7.53
2018-10-04T16:43:13.586Z,6.20
2018-10-04T16:45:45.581Z,5.83
2018-10-04T16:48:17.923Z,6.90
2018-10-04T16:50:50.295Z,7.20
2018-10-04T16:53:22.675Z,7.47
2018-10-04T16:55:55.678Z,7.17
2018-10-04T16:58:27.906Z,7.07
2018-10-04T17:00:59.992Z,7.07
2018-10-04T17:03:32.866Z,8.10
2018-10-04T17:06:05.187Z,6.93
2018-10-04T17:08:38.855Z,7.57
2018-10-04T17:11:14.595Z,7.90
2018-10-04T17:13:46.958Z,7.57
2018-10-04T17:16:19.046Z,7.37
2018-10-04T17:18:51.225Z,6.87
2018-10-04T17:21:23.215Z,7.00
2018-10-04T17:23:55.486Z,7.70
2018-10-04T17:26:27.888Z,7.53
2018-10-04T17:29:00.256Z,6.27
2018-10-04T17:31:32.684Z,7.07
2018-10-04T17:34:04.864Z,6.23
2018-10-04T17:36:37.369Z,6.43
2018-10-04T17:39:10.276Z,6.40
2018-10-04T17:41:42.506Z,5.30
2018-10-04T17:44:14.996Z,5.97
2018-10-04T17:46:47.398Z,6.70
2018-10-04T17:49:19.772Z,6.07
2018-10-04T17:51:52.169Z,7.57
2018-10-04T17:54:24.510Z,6.03
2018-10-04T17:56:56.868Z,7.40
2018-10-04T17:59:28.826Z,6.20
2018-10-04T18:02:00.998Z,5.80
2018-10-04T18:04:33.073Z,5.93
2018-10-04T18:07:05.578Z,5.53
2018-10-04T18:09:38.192Z,5.57
2018-10-04T18:12:10.542Z,4.97
2018-10-04T18:14:43.060Z,5.73
2018-10-04T18:17:15.294Z,4.83
2018-10-04T18:19:47.769Z,7.03
2018-10-04T18:22:20.415Z,6.23
2018-10-04T18:24:53.018Z,5.40
2018-10-04T18:27:25.635Z,5.60
2018-10-04T18:29:57.998Z,6.70
2018-10-04T18:32:30.526Z,4.97
2018-10-04T18:35:03.111Z,5.57
2018-10-04T18:37:35.609Z,5.87
2018-10-04T18:40:07.781Z,5.60
2018-10-04T18:42:40.313Z,4.80
2018-10-04T18:45:13.496Z,5.70
2018-10-04T18:47:46.032Z,5.67
2018-10-04T18:50:18.741Z,5.13
2018-10-04T18:52:51.135Z,5.80
2018-10-04T18:55:23.723Z,5.03
2018-10-04T18:57:56.437Z,5.33
2018-10-04T19:00:28.567Z,5.63
2018-10-04T19:03:00.586Z,5.90
2018-10-04T19:05:33.281Z,4.83
2018-10-04T19:08:05.811Z,5.63
2018-10-04T19:10:38.405Z,5.50
2018-10-04T19:13:10.776Z,4.50
2018-10-04T19:15:43.261Z,3.90
2018-10-04T19:18:15.697Z,4.43
2018-10-04T19:20:47.817Z,4.60
2018-10-04T19:23:20.105Z,4.23
2018-10-04T19:25:52.174Z,4.13
2018-10-04T19:28:24.368Z,4.60
2018-10-04T19:30:57.159Z,4.30
2018-10-04T19:33:29.320Z,4.30
2018-10-04T19:36:01.718Z,4.20
2018-10-04T19:38:34.071Z,4.80
2018-10-04T19:41:06.587Z,4.10
2018-10-04T19:43:38.730Z,4.17
2018-10-04T19:46:10.841Z,3.33
2018-10-04T19:48:43.586Z,4.37
2018-10-04T19:51:15.699Z,3.63
2018-10-04T19:53:48.273Z,3.90
2018-10-04T19:56:21.050Z,3.23
2018-10-04T19:58:54.461Z,3.97
2018-10-04T20:01:26.956Z,3.60
2018-10-04T20:03:59.302Z,3.50
2018-10-04T20:06:31.759Z,4.03
2018-10-04T20:09:04.813Z,4.20
2018-10-04T20:11:37.393Z,3.63
2018-10-04T20:14:09.652Z,3.40
2018-10-04T20:16:41.591Z,4.13
2018-10-04T20:19:14.235Z,4.13
2018-10-04T20:21:46.727Z,3.13
2018-10-04T20:24:18.981Z,4.13
2018-10-04T20:26:51.251Z,3.03
2018-10-04T20:29:23.554Z,3.57
2018-10-04T20:31:56.028Z,3.47
2018-10-04T20:34:28.322Z,2.97
2018-10-04T20:37:00.644Z,3.10
2018-10-04T20:39:32.885Z,3.30
2018-10-04T20:42:05.327Z,3.10
2018-10-04T20:44:37.485Z,3.13
2018-10-04T20:47:09.669Z,3.00
2018-10-04T20:49:42.053Z,2.93
2018-10-04T20:52:14.601Z,2.63
2018-10-04T20:54:46.962Z,3.50
2018-10-04T20:57:19.331Z,2.97
2018-10-04T20:59:51.808Z,3.20
2018-10-04T21:02:23.925Z,3.60
2018-10-04T21:04:56.680Z,3.03
2018-10-04T21:07:29.048Z,3.00
2018-10-04T21:10:01.409Z,3.20
2018-10-04T21:12:33.583Z,3.90
2018-10-04T21:15:06.185Z,3.40
2018-10-04T21:17:38.118Z,3.60
2018-10-04T21:20:10.342Z,2.80
2018-10-04T21:22:42.757Z,3.20
2018-10-04T21:25:14.859Z,2.80
2018-10-04T21:27:47.612Z,2.93
2018-10-04T21:30:20.194Z,3.43
2018-10-04T21:32:52.524Z,2.83
2018-10-04T21:35:24.783Z,3.23
2018-10-04T21:37:57.269Z,2.83
2018-10-04T21:40:29.667Z,2.67
2018-10-04T21:43:02.273Z,3.27
2018-10-04T21:45:34.684Z,3.17
2018-10-04T21:48:06.958Z,4.00
2018-10-04T21:50:39.641Z,3.27
2018-10-04T21:53:11.950Z,3.20
2018-10-04T21:55:44.951Z,2.97
2018-10-04T21:58:17.779Z,3.40
2018-10-04T22:00:54.724Z,3.60
2018-10-04T22:03:28.440Z,3.47
2018-10-04T22:06:01.109Z,3.60
2018-10-04T22:08:34.014Z,3.37
2018-10-04T22:11:06.212Z,3.00
2018-10-04T22:13:38.486Z,2.50
2018-10-04T22:16:11.465Z,3.20
2018-10-04T22:18:44.125Z,2.77
2018-10-04T22:21:16.455Z,3.50
2018-10-04T22:23:49.292Z,3.27
2018-10-04T22:26:21.592Z,3.60
2018-10-04T22:28:54.228Z,3.50
2018-10-04T22:31:27.289Z,3.00
2018-10-04T22:34:00.034Z,3.20
2018-10-04T22:36:32.916Z,3.27
2018-10-04T22:39:06.322Z,2.73
2018-10-04T22:41:39.855Z,2.60
2018-10-04T22:44:12.428Z,2.77
2018-10-04T22:46:44.916Z,2.77
2018-10-04T22:49:17.758Z,2.60
2018-10-04T22:51:50.607Z,2.30
2018-10-04T22:54:23.706Z,2.50
2018-10-04T22:56:56.090Z,2.83
2018-10-04T22:59:29.492Z,3.47
2018-10-04T23:02:02.455Z,2.90
2018-10-04T23:04:35.823Z,5.27
2018-10-04T23:07:08.171Z,3.50
2018-10-04T23:09:41.098Z,3.07
2018-10-04T23:12:13.528Z,2.50
2018-10-04T23:14:45.757Z,2.70
2018-10-04T23:17:18.367Z,2.70
2018-10-04T23:19:50.699Z,2.00
2018-10-04T23:22:24.135Z,1.90
2018-10-04T23:24:56.455Z,2.40
2018-10-04T23:27:28.929Z,1.70
2018-10-04T23:30:01.043Z,1.90
2018-10-04T23:32:33.361Z,1.80
2018-10-04T23:35:05.712Z,2.37
2018-10-04T23:37:37.672Z,2.37
2018-10-04T23:40:09.843Z,2.50
2018-10-04T23:42:42.173Z,1.97
2018-10-04T23:45:15.333Z,2.20
2018-10-04T23:47:47.569Z,1.93
2018-10-04T23:50:19.717Z,1.90
2018-10-04T23:52:51.939Z,2.20
2018-10-04T23:55:24.495Z,1.70
2018-10-04T23:57:56.634Z,2.00
